Time,TemperatureF,DewpointF,PressureIn,WindDirection,WindDirectionDegrees,WindSpeedMPH,WindSpeedGustMPH,Humidity,HourlyPrecipIn,Conditions,Clouds,dailyrainin,SoftwareType,DateUTC
2013-04-13 00:01:00,39.3,35.0,29.85,WNW,290,5.0,14.0,84,0.00,,,0.00,weatherlink.com 1.10,2013-04-13 04:01:00,
2013-04-13 00:16:00,39.1,33.0,29.85,WSW,247,4.0,12.0,78,0.00,,,0.00,weatherlink.com 1.10,2013-04-13 04:16:00,
2013-04-13 00:31:00,38.9,32.0,29.85,SW,217,5.0,14.0,77,0.00,,,0.00,weatherlink.com 1.10,2013-04-13 04:31:00,
2013-04-13 00:46:00,38.6,32.0,29.86,WSW,243,4.0,7.0,78,0.00,,,0.00,weatherlink.com 1.10,2013-04-13 04:46:00,
2013-04-13 01:01:00,38.6,32.0,29.86,West,273,2.0,8.0,78,0.00,,,0.00,weatherlink.com 1.10,2013-04-13 05:01:00,
2013-04-13 01:17:00,38.5,32.0,29.87,South,176,0.0,7.0,78,0.00,,,0.00,weatherlink.com 1.10,2013-04-13 05:17:00,
2013-04-13 01:31:00,38.4,32.0,29.87,West,270,0.0,8.0,79,0.00,,,0.00,weatherlink.com 1.10,2013-04-13 05:31:00,
2013-04-13 01:47:00,38.4,33.0,29.87,West,273,2.0,6.0,80,0.00,,,0.00,weatherlink.com 1.10,2013-04-13 05:47:00,
2013-04-13 02:01:00,38.3,33.0,29.87,WSW,248,0.0,7.0,81,0.00,,,0.00,weatherlink.com 1.10,2013-04-13 06:01:00,
2013-04-13 02:17:00,38.2,33.0,29.87,WSW,245,3.0,5.0,81,0.00,,,0.00,weatherlink.com 1.10,2013-04-13 06:17:00,
2013-04-13 02:47:00,38.2,34.0,29.87,SW,220,2.0,7.0,83,0.00,,,0.00,weatherlink.com 1.10,2013-04-13 06:47:00,
2013-04-13 03:02:00,38.2,34.0,29.87,SW,231,0.0,8.0,85,0.00,,,0.00,weatherlink.com 1.10,2013-04-13 07:02:00,
2013-04-13 03:47:00,37.8,35.0,29.86,SW,236,0.0,5.0,89,0.00,,,0.00,weatherlink.com 1.10,2013-04-13 07:47:00,
2013-04-13 04:02:00,37.8,35.0,29.86,WSW,240,0.0,7.0,90,0.00,,,0.00,weatherlink.com 1.10,2013-04-13 08:02:00,
2013-04-13 04:32:00,36.3,35.0,29.86,SW,229,0.0,4.0,93,0.02,,,0.02,weatherlink.com 1.10,2013-04-13 08:32:00,
2013-04-13 04:47:00,36.2,35.0,29.86,SSW,209,1.0,6.0,94,0.02,,,0.02,weatherlink.com 1.10,2013-04-13 08:47:00,
2013-04-13 05:02:00,36.5,35.0,29.86,WNW,292,2.0,7.0,95,0.02,,,0.02,weatherlink.com 1.10,2013-04-13 09:02:00,
2013-04-13 05:17:00,36.8,36.0,29.86,NW,304,0.0,6.0,95,0.00,,,0.02,weatherlink.com 1.10,2013-04-13 09:17:00,
2013-04-13 05:32:00,37.0,36.0,29.86,WNW,290,1.0,9.0,94,0.00,,,0.02,weatherlink.com 1.10,2013-04-13 09:32:00,
2013-04-13 05:47:00,37.1,35.0,29.86,West,267,3.0,9.0,93,0.00,,,0.02,weatherlink.com 1.10,2013-04-13 09:47:00,
2013-04-13 06:02:00,37.0,35.0,29.86,WSW,250,1.0,5.0,93,0.00,,,0.02,weatherlink.com 1.10,2013-04-13 10:02:00,
2013-04-13 06:17:00,36.9,35.0,29.86,West,271,2.0,5.0,92,0.00,,,0.02,weatherlink.com 1.10,2013-04-13 10:17:00,
2013-04-13 06:32:00,36.8,35.0,29.86,WSW,250,0.0,11.0,92,0.00,,,0.02,weatherlink.com 1.10,2013-04-13 10:32:00,
2013-04-13 06:47:00,36.7,35.0,29.86,West,281,1.0,6.0,92,0.00,,,0.02,weatherlink.com 1.10,2013-04-13 10:47:00,
2013-04-13 07:02:00,36.6,35.0,29.86,WSW,255,2.0,6.0,92,0.00,,,0.02,weatherlink.com 1.10,2013-04-13 11:02:00,
2013-04-13 07:32:00,36.6,34.0,29.86,WSW,243,2.0,6.0,91,0.00,,,0.02,weatherlink.com 1.10,2013-04-13 11:32:00,
2013-04-13 08:17:00,36.9,35.0,29.88,WSW,245,4.0,6.0,92,0.00,,,0.02,weatherlink.com 1.10,2013-04-13 12:17:00,
2013-04-13 08:32:00,36.5,35.0,29.88,West,271,2.0,10.0,93,0.00,,,0.02,weatherlink.com 1.10,2013-04-13 12:32:00,
2013-04-13 08:47:00,35.0,34.0,29.88,SW,231,2.0,8.0,94,0.00,,,0.02,weatherlink.com 1.10,2013-04-13 12:47:00,
2013-04-13 09:02:00,35.3,34.0,29.88,WSW,244,3.0,12.0,95,0.01,,,0.03,weatherlink.com 1.10,2013-04-13 13:02:00,
2013-04-13 09:32:00,36.4,35.0,29.88,West,268,1.0,7.0,93,0.03,,,0.05,weatherlink.com 1.10,2013-04-13 13:32:00,
2013-04-13 10:02:00,37.3,35.0,29.88,WNW,301,2.0,8.0,91,0.02,,,0.05,weatherlink.com 1.10,2013-04-13 14:02:00,
2013-04-13 10:17:00,37.6,35.0,29.89,WNW,292,3.0,9.0,90,0.02,,,0.06,weatherlink.com 1.10,2013-04-13 14:17:00,
2013-04-13 10:32:00,38.3,35.0,29.89,SSW,213,0.0,10.0,89,0.01,,,0.06,weatherlink.com 1.10,2013-04-13 14:32:00,
2013-04-13 10:47:00,38.4,36.0,29.89,West,281,0.0,12.0,89,0.01,,,0.06,weatherlink.com 1.10,2013-04-13 14:47:00,
2013-04-13 11:02:00,37.9,35.0,29.89,WSW,253,2.0,13.0,89,0.01,,,0.06,weatherlink.com 1.10,2013-04-13 15:02:00,
2013-04-13 11:47:00,34.7,32.0,29.92,West,279,7.0,14.0,91,0.00,,,0.06,weatherlink.com 1.10,2013-04-13 15:47:00,
2013-04-13 12:02:00,34.5,33.0,29.92,WNW,283,3.0,8.0,94,0.00,,,0.06,weatherlink.com 1.10,2013-04-13 16:02:00,
2013-04-13 12:32:00,37.4,35.0,29.92,West,259,6.0,14.0,89,0.01,,,0.07,weatherlink.com 1.10,2013-04-13 16:32:00,
2013-04-13 12:47:00,38.1,35.0,29.92,NNE,26,4.0,15.0,87,0.02,,,0.08,weatherlink.com 1.10,2013-04-13 16:47:00,
2013-04-13 13:02:00,37.8,34.0,29.93,NW,309,4.0,12.0,86,0.02,,,0.08,weatherlink.com 1.10,2013-04-13 17:02:00,
2013-04-13 13:17:00,38.2,34.0,29.92,SSW,213,1.0,9.0,84,0.01,,,0.08,weatherlink.com 1.10,2013-04-13 17:17:00,
2013-04-13 13:47:00,39.3,34.0,29.93,NW,322,5.0,10.0,81,0.00,,,0.08,weatherlink.com 1.10,2013-04-13 17:47:00,
2013-04-13 14:03:00,38.9,33.0,29.94,West,277,2.0,10.0,79,0.00,,,0.08,weatherlink.com 1.10,2013-04-13 18:03:00,
2013-04-13 14:18:00,37.8,32.0,29.94,WNW,292,3.0,14.0,79,0.00,,,0.08,weatherlink.com 1.10,2013-04-13 18:18:00,
2013-04-13 14:33:00,39.3,33.0,29.94,WNW,285,5.0,13.0,78,0.00,,,0.08,weatherlink.com 1.10,2013-04-13 18:33:00,
2013-04-13 14:48:00,38.9,32.0,29.95,NW,325,1.0,12.0,76,0.00,,,0.08,weatherlink.com 1.10,2013-04-13 18:48:00,
2013-04-13 15:03:00,39.5,32.0,29.95,WSW,244,6.0,14.0,74,0.00,,,0.08,weatherlink.com 1.10,2013-04-13 19:03:00,
2013-04-13 15:18:00,40.0,32.0,29.95,WSW,257,5.0,15.0,73,0.00,,,0.08,weatherlink.com 1.10,2013-04-13 19:18:00,
2013-04-13 15:33:00,41.3,33.0,29.95,WNW,293,3.0,10.0,71,0.00,,,0.08,weatherlink.com 1.10,2013-04-13 19:33:00,
2013-04-13 15:48:00,40.6,32.0,29.95,NW,309,6.0,15.0,72,0.00,,,0.08,weatherlink.com 1.10,2013-04-13 19:48:00,
2013-04-13 16:03:00,42.1,33.0,29.95,WNW,288,2.0,13.0,69,0.00,,,0.08,weatherlink.com 1.10,2013-04-13 20:03:00,
2013-04-13 16:18:00,43.0,34.0,29.95,WNW,296,6.0,15.0,70,0.00,,,0.08,weatherlink.com 1.10,2013-04-13 20:18:00,
2013-04-13 16:34:00,42.3,33.0,29.95,WNW,286,1.0,9.0,70,0.00,,,0.08,weatherlink.com 1.10,2013-04-13 20:34:00,
2013-04-13 16:48:00,41.8,33.0,29.96,WSW,255,2.0,11.0,72,0.00,,,0.08,weatherlink.com 1.10,2013-04-13 20:48:00,
2013-04-13 17:03:00,41.5,32.0,29.96,West,271,4.0,13.0,68,0.00,,,0.08,weatherlink.com 1.10,2013-04-13 21:03:00,
2013-04-13 17:18:00,41.6,32.0,29.96,West,281,3.0,12.0,70,0.00,,,0.08,weatherlink.com 1.10,2013-04-13 21:18:00,
2013-04-13 17:33:00,41.9,32.0,29.96,NNW,329,2.0,10.0,68,0.00,,,0.08,weatherlink.com 1.10,2013-04-13 21:33:00,
2013-04-13 17:49:00,42.0,32.0,29.96,NW,307,5.0,8.0,68,0.00,,,0.08,weatherlink.com 1.10,2013-04-13 21:49:00,
2013-04-13 18:03:00,42.0,32.0,29.96,SSW,192,1.0,12.0,69,0.00,,,0.08,weatherlink.com 1.10,2013-04-13 22:03:00,
2013-04-13 18:19:00,42.6,31.0,29.97,WNW,289,0.0,10.0,65,0.00,,,0.08,weatherlink.com 1.10,2013-04-13 22:19:00,
2013-04-13 18:33:00,42.6,32.0,29.97,WNW,289,3.0,12.0,67,0.00,,,0.08,weatherlink.com 1.10,2013-04-13 22:33:00,
2013-04-13 18:49:00,42.4,32.0,29.97,WSW,246,3.0,11.0,66,0.00,,,0.08,weatherlink.com 1.10,2013-04-13 22:49:00,
2013-04-13 19:04:00,42.9,32.0,29.97,West,280,0.0,8.0,66,0.00,,,0.08,weatherlink.com 1.10,2013-04-13 23:04:00,
2013-04-13 19:19:00,42.3,32.0,29.97,WNW,283,0.0,7.0,68,0.00,,,0.08,weatherlink.com 1.10,2013-04-13 23:19:00,
2013-04-13 19:36:00,42.2,32.0,29.97,SSE,165,1.0,7.0,67,0.00,,,0.08,weatherlink.com 1.10,2013-04-13 23:36:00,
2013-04-13 19:50:00,41.8,32.0,29.97,WNW,282,0.0,9.0,68,0.00,,,0.08,weatherlink.com 1.10,2013-04-13 23:50:00,
2013-04-13 20:05:00,41.6,32.0,29.97,WSW,254,0.0,5.0,69,0.00,,,0.08,weatherlink.com 1.10,2013-04-14 00:05:00,
2013-04-13 20:21:00,41.0,32.0,29.96,WSW,252,3.0,3.0,71,0.00,,,0.08,weatherlink.com 1.10,2013-04-14 00:21:00,
2013-04-13 20:52:00,40.4,32.0,29.97,WSW,252,0.0,2.0,72,0.00,,,0.08,weatherlink.com 1.10,2013-04-14 00:52:00,
2013-04-13 21:05:00,40.1,32.0,29.98,WSW,252,0.0,2.0,73,0.00,,,0.08,weatherlink.com 1.10,2013-04-14 01:05:00,
2013-04-13 21:20:00,39.8,32.0,29.98,WSW,252,0.0,3.0,75,0.00,,,0.08,weatherlink.com 1.10,2013-04-14 01:20:00,
2013-04-13 21:35:00,39.9,33.0,29.98,WSW,252,0.0,3.0,77,0.00,,,0.08,weatherlink.com 1.10,2013-04-14 01:35:00,
2013-04-13 21:50:00,39.9,33.0,29.98,South,186,0.0,2.0,77,0.00,,,0.08,weatherlink.com 1.10,2013-04-14 01:50:00,
2013-04-13 22:05:00,39.9,33.0,29.99,South,186,0.0,3.0,77,0.00,,,0.08,weatherlink.com 1.10,2013-04-14 02:05:00,
2013-04-13 22:20:00,39.7,33.0,29.99,SW,233,0.0,3.0,77,0.00,,,0.08,weatherlink.com 1.10,2013-04-14 02:20:00,
2013-04-13 22:35:00,39.3,33.0,30.00,SW,233,0.0,1.0,78,0.00,,,0.08,weatherlink.com 1.10,2013-04-14 02:35:00,
2013-04-13 22:50:00,39.2,33.0,30.00,SW,233,0.0,1.0,79,0.00,,,0.08,weatherlink.com 1.10,2013-04-14 02:50:00,
2013-04-13 23:06:00,39.2,33.0,29.99,SW,233,0.0,2.0,79,0.00,,,0.08,weatherlink.com 1.10,2013-04-14 03:06:00,
2013-04-13 23:21:00,39.1,33.0,29.99,SW,233,0.0,1.0,79,0.00,,,0.08,weatherlink.com 1.10,2013-04-14 03:21:00,
2013-04-13 23:36:00,38.9,33.0,30.00,SW,233,0.0,1.0,80,0.00,,,0.08,weatherlink.com 1.10,2013-04-14 03:36:00,
2013-04-13 23:51:00,38.5,34.0,30.00,SW,233,0.0,0.0,83,0.00,,,0.08,weatherlink.com 1.10,2013-04-14 03:51:00,